createdAt,value
2023-01-04T00:02:03.007Z,98878.45
2023-01-04T00:04:33.245Z,98878.06
2023-01-04T00:07:03.240Z,98878.41
2023-01-04T00:09:33.253Z,98873.50
2023-01-04T00:12:03.362Z,98875.70
2023-01-04T00:14:33.542Z,98874.29
2023-01-04T00:17:03.615Z,98870.68
2023-01-04T00:19:34.324Z,98870.05
2023-01-04T00:22:04.397Z,98871.39
2023-01-04T00:24:34.363Z,98873.23
2023-01-04T00:27:04.259Z,98871.02
2023-01-04T00:29:37.291Z,98871.66
2023-01-04T00:32:09.960Z,98872.24
2023-01-04T00:34:41.916Z,98872.90
2023-01-04T00:37:12.218Z,98876.27
2023-01-04T00:39:42.234Z,98873.17
2023-01-04T00:42:12.234Z,98869.52
2023-01-04T00:44:42.247Z,98870.81
2023-01-04T00:47:12.221Z,98872.52
2023-01-04T00:49:42.295Z,98866.36
2023-01-04T00:52:12.424Z,98864.46
2023-01-04T00:54:43.184Z,98871.81
2023-01-04T00:57:13.201Z,98872.87
2023-01-04T00:59:43.252Z,98871.21
2023-01-04T01:02:13.470Z,98874.33
2023-01-04T01:04:43.570Z,98871.92
2023-01-04T01:07:13.579Z,98872.61
2023-01-04T01:09:43.449Z,98874.63
2023-01-04T01:12:13.414Z,98871.59
2023-01-04T01:14:43.244Z,98867.95
2023-01-04T01:17:13.167Z,98865.45
2023-01-04T01:19:43.234Z,98868.23
2023-01-04T01:22:13.267Z,98872.60
2023-01-04T01:24:43.110Z,98871.55
2023-01-04T01:27:12.875Z,98867.05
2023-01-04T01:29:58.429Z,98861.75
2023-01-04T01:32:48.186Z,98860.00
2023-01-04T01:35:18.705Z,98860.44
2023-01-04T01:37:48.846Z,98860.24
2023-01-04T01:40:19.087Z,98858.85
2023-01-04T01:42:50.795Z,98855.81
2023-01-04T01:45:37.962Z,98854.72
2023-01-04T01:48:15.186Z,98861.50
2023-01-04T01:50:50.244Z,98860.39
2023-01-04T01:53:21.061Z,98856.78
2023-01-04T01:55:53.407Z,98853.10
2023-01-04T01:58:26.383Z,98852.20
2023-01-04T02:00:56.565Z,98852.88
2023-01-04T02:03:32.515Z,98852.98
2023-01-04T02:06:04.866Z,98854.47
2023-01-04T02:08:37.386Z,98854.90
2023-01-04T02:11:07.894Z,98853.49
2023-01-04T02:13:57.986Z,98856.33
2023-01-04T02:16:36.821Z,98858.27
2023-01-04T02:19:30.520Z,98859.44
2023-01-04T02:22:25.801Z,98856.31
2023-01-04T02:25:17.749Z,98853.02
2023-01-04T02:27:56.664Z,98851.99
2023-01-04T02:31:06.460Z,98854.02
2023-01-04T02:33:49.714Z,98855.66
2023-01-04T02:36:26.253Z,98855.24
2023-01-04T02:39:11.547Z,98850.64
2023-01-04T02:41:49.067Z,98849.50
2023-01-04T02:44:42.682Z,98846.70
2023-01-04T02:47:15.762Z,98842.06
2023-01-04T02:50:05.786Z,98842.61
2023-01-04T02:52:35.731Z,98838.98
2023-01-04T02:55:08.006Z,98834.64
2023-01-04T02:57:51.425Z,98837.81
2023-01-04T03:01:08.222Z,98836.73
2023-01-04T03:04:09.619Z,98828.27
2023-01-04T03:06:50.077Z,98820.63
2023-01-04T03:09:26.846Z,98814.98
2023-01-04T03:12:22.035Z,98814.27
2023-01-04T03:14:59.994Z,98811.27
2023-01-04T03:17:36.556Z,98811.94
2023-01-04T03:20:10.515Z,98807.36
2023-01-04T03:23:03.644Z,98798.94
2023-01-04T03:25:56.706Z,98796.73
2023-01-04T03:28:52.548Z,98791.83
2023-01-04T03:31:47.105Z,98794.08
2023-01-04T03:34:35.563Z,98790.08
2023-01-04T03:37:16.555Z,98787.36
2023-01-04T03:40:31.604Z,98784.15
2023-01-04T03:43:24.353Z,98780.64
2023-01-04T03:46:20.309Z,98783.74
2023-01-04T03:48:56.903Z,98780.56
2023-01-04T03:51:31.843Z,98782.99
2023-01-04T03:54:09.948Z,98784.06
2023-01-04T03:56:45.302Z,98785.63
2023-01-04T03:59:15.247Z,98784.90
2023-01-04T04:01:45.950Z,98783.67
2023-01-04T04:04:37.243Z,98781.50
2023-01-04T04:07:26.161Z,98780.95
2023-01-04T04:09:57.147Z,98782.23
2023-01-04T04:12:32.124Z,98779.69
2023-01-04T04:15:02.362Z,98776.97
2023-01-04T04:17:33.223Z,98766.53
2023-01-04T04:20:03.449Z,98766.86
2023-01-04T04:22:33.534Z,98762.41
2023-01-04T04:25:03.941Z,98763.10
2023-01-04T04:27:34.336Z,98759.52
2023-01-04T04:30:04.928Z,98759.80
2023-01-04T04:32:34.801Z,98759.14
2023-01-04T04:35:05.321Z,98763.71
2023-01-04T04:37:36.989Z,98758.56
2023-01-04T04:40:28.816Z,98761.84
2023-01-04T04:42:59.243Z,98762.23
2023-01-04T04:45:29.891Z,98760.62
2023-01-04T04:48:00.138Z,98761.59
2023-01-04T04:50:30.499Z,98760.46
2023-01-04T04:53:00.552Z,98755.27
2023-01-04T04:55:30.887Z,98745.39
2023-01-04T04:58:03.532Z,98745.54
2023-01-04T05:00:33.583Z,98743.83
2023-01-04T05:03:03.955Z,98742.36
2023-01-04T05:05:34.103Z,98734.65
2023-01-04T05:08:04.331Z,98725.50
2023-01-04T05:10:34.951Z,98721.78
2023-01-04T05:13:06.483Z,98712.20
2023-01-04T05:15:39.042Z,98704.73
2023-01-04T05:18:10.315Z,98702.42
2023-01-04T05:20:40.559Z,98695.41
2023-01-04T05:23:13.220Z,98690.23
2023-01-04T05:25:43.702Z,98695.80
2023-01-04T05:28:13.821Z,98703.83
2023-01-04T05:30:53.518Z,98702.36
2023-01-04T05:33:25.579Z,98703.52
2023-01-04T05:35:56.726Z,98703.54
2023-01-04T05:38:27.052Z,98698.43
2023-01-04T05:40:57.594Z,98693.09
2023-01-04T05:43:27.776Z,98693.84
2023-01-04T05:45:58.603Z,98696.08
2023-01-04T05:48:29.003Z,98696.38
2023-01-04T05:50:59.364Z,98697.80
2023-01-04T05:53:29.714Z,98699.59
2023-01-04T05:56:00.257Z,98697.61
2023-01-04T05:58:30.300Z,98699.95
2023-01-04T06:01:00.446Z,98705.09
2023-01-04T06:03:30.741Z,98703.77
2023-01-04T06:06:01.146Z,98705.14
2023-01-04T06:08:34.126Z,98706.83
2023-01-04T06:11:04.068Z,98700.52
2023-01-04T06:13:34.063Z,98700.86
2023-01-04T06:16:04.363Z,98696.13
2023-01-04T06:18:34.758Z,98689.85
2023-01-04T06:21:05.050Z,98684.38
2023-01-04T06:23:35.274Z,98682.88
2023-01-04T06:26:05.653Z,98683.74
2023-01-04T06:28:40.772Z,98678.49
2023-01-04T06:31:13.016Z,98677.50
2023-01-04T06:33:43.656Z,98672.10
2023-01-04T06:36:19.885Z,98669.59
2023-01-04T06:38:56.893Z,98668.86
2023-01-04T06:41:29.126Z,98669.54
2023-01-04T06:43:59.351Z,98667.77
2023-01-04T06:46:32.285Z,98671.82
2023-01-04T06:49:02.859Z,98674.81
2023-01-04T06:51:33.124Z,98668.54
2023-01-04T06:54:06.226Z,98663.34
2023-01-04T06:56:36.299Z,98667.44
2023-01-04T06:59:09.303Z,98671.20
2023-01-04T07:01:40.815Z,98673.31
2023-01-04T07:04:11.345Z,98674.01
2023-01-04T07:06:43.030Z,98676.77
2023-01-04T07:09:13.523Z,98673.23
2023-01-04T07:11:43.808Z,98669.70
2023-01-04T07:14:13.986Z,98658.64
2023-01-04T07:16:45.869Z,98653.77
2023-01-04T07:19:16.273Z,98651.70
2023-01-04T07:21:46.231Z,98650.19
2023-01-04T07:24:16.528Z,98649.41
2023-01-04T07:26:46.992Z,98643.75
2023-01-04T07:29:17.585Z,98644.65
2023-01-04T07:31:52.917Z,98643.90
2023-01-04T07:34:25.341Z,98635.55
2023-01-04T07:36:55.827Z,98625.75
2023-01-04T07:39:25.966Z,98622.04
2023-01-04T07:41:55.970Z,98623.55
2023-01-04T07:44:28.140Z,98624.39
2023-01-04T07:46:58.412Z,98628.64
2023-01-04T07:49:28.957Z,98629.98
2023-01-04T07:51:59.035Z,98634.43
2023-01-04T07:54:29.228Z,98634.55
2023-01-04T07:56:59.637Z,98631.55
2023-01-04T07:59:29.964Z,98632.00
2023-01-04T08:02:02.690Z,98634.97
2023-01-04T08:04:38.105Z,98640.35
2023-01-04T08:07:08.746Z,98639.80
2023-01-04T08:09:39.987Z,98640.35
2023-01-04T08:12:10.419Z,98634.70
2023-01-04T08:14:40.559Z,98636.42
2023-01-04T08:17:11.502Z,98630.27
2023-01-04T08:19:41.677Z,98627.72
2023-01-04T08:22:11.793Z,98618.38
2023-01-04T08:24:42.329Z,98613.43
2023-01-04T08:27:12.602Z,98612.20
2023-01-04T08:29:42.921Z,98615.62
2023-01-04T08:32:13.054Z,98613.19
2023-01-04T08:34:44.083Z,98609.23
2023-01-04T08:37:14.140Z,98608.95
2023-01-04T08:39:48.884Z,98596.23
2023-01-04T08:42:26.645Z,98596.92
2023-01-04T08:45:01.936Z,98596.04
2023-01-04T08:47:33.483Z,98599.29
2023-01-04T08:50:10.251Z,98601.04
2023-01-04T08:52:42.050Z,98597.11
2023-01-04T08:55:13.945Z,98596.29
2023-01-04T08:57:45.180Z,98601.30
2023-01-04T09:00:18.812Z,98602.03
2023-01-04T09:02:49.379Z,98598.42
2023-01-04T09:05:22.730Z,98596.38
2023-01-04T09:07:53.281Z,98597.77
2023-01-04T09:10:25.490Z,98595.75
2023-01-04T09:12:55.983Z,98590.10
2023-01-04T09:15:26.046Z,98584.61
2023-01-04T09:18:31.321Z,98583.44
2023-01-04T09:20:46.283Z,98577.95
2023-01-04T09:23:16.563Z,98571.25
2023-01-04T09:25:46.570Z,98567.98
2023-01-04T09:28:17.113Z,98564.52
2023-01-04T09:30:47.011Z,98556.44
2023-01-04T09:33:16.971Z,98548.88
2023-01-04T09:35:46.861Z,98545.24
2023-01-04T09:38:16.943Z,98541.33
2023-01-04T09:40:55.370Z,98534.99
2023-01-04T09:43:37.504Z,98530.17
2023-01-04T09:46:12.893Z,98523.66
2023-01-04T09:48:45.803Z,98512.48
2023-01-04T09:51:20.464Z,98499.94
2023-01-04T09:53:56.673Z,98491.53
2023-01-04T09:56:30.082Z,98485.35
2023-01-04T09:59:02.935Z,98488.44
2023-01-04T10:01:40.145Z,98483.11
2023-01-04T10:04:18.343Z,98478.64
2023-01-04T10:06:49.816Z,98473.46
2023-01-04T10:09:20.220Z,98465.19
2023-01-04T10:12:12.514Z,98455.92
2023-01-04T10:15:03.486Z,98444.86
2023-01-04T10:21:29.493Z,98437.63
2023-01-04T10:23:59.329Z,98430.55
2023-01-04T10:26:35.114Z,98420.48
2023-01-04T10:29:35.714Z,98420.66
2023-01-04T10:32:13.488Z,98413.48
2023-01-04T10:34:45.001Z,98408.34
2023-01-04T10:37:18.859Z,98408.60
2023-01-04T10:39:55.300Z,98397.21
2023-01-04T10:42:35.763Z,98392.37
2023-01-04T10:45:14.363Z,98389.53
2023-01-04T10:47:54.188Z,98388.82
2023-01-04T10:50:38.195Z,98394.88
2023-01-04T10:53:14.377Z,98385.70
2023-01-04T10:56:25.867Z,98378.22
2023-01-04T10:58:48.142Z,98366.23
2023-01-04T11:01:29.201Z,98366.17
2023-01-04T11:04:03.848Z,98355.23
2023-01-04T11:06:40.124Z,98347.48
2023-01-04T11:09:14.384Z,98342.83
2023-01-04T11:11:48.136Z,98330.29
2023-01-04T11:14:18.579Z,98323.03
2023-01-04T11:16:52.588Z,98312.30
2023-01-04T11:19:22.662Z,98307.98
2023-01-04T11:21:59.992Z,98305.77
2023-01-04T11:24:33.673Z,98302.02
2023-01-04T11:27:12.811Z,98300.06
2023-01-04T11:29:50.291Z,98294.92
2023-01-04T11:32:34.789Z,98292.55
2023-01-04T11:35:05.963Z,98288.34
2023-01-04T11:37:37.839Z,98282.14
2023-01-04T11:40:28.561Z,98282.55
2023-01-04T11:43:15.868Z,98279.73
2023-01-04T11:45:57.490Z,98279.74
2023-01-04T11:48:36.128Z,98276.11
2023-01-04T11:51:10.050Z,98274.05
2023-01-04T11:53:43.089Z,98266.67
2023-01-04T11:56:19.592Z,98260.16
2023-01-04T11:59:06.626Z,98247.10
2023-01-04T12:01:38.191Z,98239.55
2023-01-04T12:04:14.629Z,98239.73
2023-01-04T12:06:50.601Z,98230.94
2023-01-04T12:09:22.164Z,98225.92
2023-01-04T12:11:54.443Z,98219.22
2023-01-04T12:14:26.614Z,98207.50
2023-01-04T12:17:05.561Z,98201.14
2023-01-04T12:19:37.132Z,98196.51
2023-01-04T12:22:21.673Z,98197.08
2023-01-04T12:25:00.020Z,98197.40
2023-01-04T12:27:31.145Z,98189.40
2023-01-04T12:30:02.723Z,98184.14
2023-01-04T12:32:47.051Z,98181.38
2023-01-04T12:36:01.582Z,98171.75
2023-01-04T12:39:06.172Z,98166.45
2023-01-04T12:42:19.023Z,98158.52
2023-01-04T12:45:15.484Z,98147.98
2023-01-04T12:48:05.373Z,98142.33
2023-01-04T12:51:37.340Z,98140.13
2023-01-04T12:54:31.661Z,98133.99
2023-01-04T12:57:29.472Z,98125.05
2023-01-04T13:00:03.281Z,98119.61
2023-01-04T13:02:35.718Z,98114.83
2023-01-04T13:05:55.520Z,98104.55
2023-01-04T13:08:23.207Z,98095.85
2023-01-04T13:10:55.026Z,98098.92
2023-01-04T13:13:32.205Z,98089.65
2023-01-04T13:16:18.014Z,98082.80
2023-01-04T13:18:50.754Z,98073.85
2023-01-04T13:21:26.392Z,98073.52
2023-01-04T13:23:57.852Z,98063.39
2023-01-04T13:26:40.364Z,98057.90
2023-01-04T13:29:22.386Z,98052.77
2023-01-04T13:31:59.026Z,98042.86
2023-01-04T13:34:32.233Z,98033.23
2023-01-04T13:37:16.832Z,98026.73
2023-01-04T13:39:48.846Z,98022.23
2023-01-04T13:42:26.625Z,98017.08
2023-01-04T13:45:31.120Z,98008.67
2023-01-04T13:48:03.986Z,98008.37
2023-01-04T13:50:37.645Z,98009.41
2023-01-04T13:53:18.103Z,98005.61
2023-01-04T13:55:52.130Z,98006.83
2023-01-04T13:58:23.954Z,98000.44
2023-01-04T14:00:57.668Z,97990.63
2023-01-04T14:03:42.361Z,97985.49
2023-01-04T14:06:20.639Z,97979.34
2023-01-04T14:09:01.278Z,97974.71
2023-01-04T14:11:52.556Z,97966.84
2023-01-04T14:14:34.767Z,97957.56
2023-01-04T14:17:19.134Z,97953.27
2023-01-04T14:19:51.966Z,97951.40
2023-01-04T14:22:43.176Z,97946.91
2023-01-04T14:25:55.785Z,97936.30
2023-01-04T14:28:41.806Z,97929.10
2023-01-04T14:31:29.331Z,97930.89
2023-01-04T14:34:05.966Z,97923.18
2023-01-04T14:36:39.167Z,97920.58
2023-01-04T14:39:19.656Z,97916.64
2023-01-04T14:42:00.026Z,97907.00
2023-01-04T14:44:35.713Z,97900.48
2023-01-04T14:47:07.048Z,97889.67
2023-01-04T14:49:37.067Z,97882.29
2023-01-04T14:52:12.855Z,97871.66
2023-01-04T14:54:46.094Z,97871.88
2023-01-04T14:57:17.093Z,97870.17
2023-01-04T14:59:47.313Z,97870.47
2023-01-04T15:02:19.067Z,97864.27
2023-01-04T15:04:52.964Z,97847.12
2023-01-04T15:07:35.465Z,97846.44
2023-01-04T15:10:19.938Z,97844.23
2023-01-04T15:12:49.964Z,97844.75
2023-01-04T15:15:20.541Z,97839.81
2023-01-04T15:17:50.473Z,97831.20
2023-01-04T15:20:20.885Z,97825.33
2023-01-04T15:22:51.594Z,97818.64
2023-01-04T15:25:21.834Z,97813.83
2023-01-04T15:27:51.988Z,97806.77
2023-01-04T15:30:22.436Z,97803.03
2023-01-04T15:32:52.384Z,97800.09
2023-01-04T15:35:22.573Z,97794.98
2023-01-04T15:37:52.691Z,97787.27
2023-01-04T15:40:25.664Z,97779.17
2023-01-04T15:43:01.357Z,97774.36
2023-01-04T15:45:37.923Z,97769.45
2023-01-04T15:48:11.742Z,97767.39
2023-01-04T15:50:42.251Z,97765.19
2023-01-04T15:53:12.164Z,97765.45
2023-01-04T15:55:42.353Z,97761.00
2023-01-04T15:58:13.484Z,97759.76
2023-01-04T16:00:43.936Z,97760.98
2023-01-04T16:03:13.696Z,97759.97
2023-01-04T16:05:43.703Z,97756.91
2023-01-04T16:08:13.481Z,97754.85
2023-01-04T16:10:49.123Z,97753.50
2023-01-04T16:13:19.353Z,97746.11
2023-01-04T16:15:49.475Z,97740.78
2023-01-04T16:18:19.609Z,97735.98
2023-01-04T16:20:49.723Z,97732.56
2023-01-04T16:23:20.960Z,97727.59
2023-01-04T16:25:50.833Z,97717.83
2023-01-04T16:28:20.889Z,97714.02
2023-01-04T16:30:56.564Z,97709.02
2023-01-04T16:33:26.901Z,97700.10
2023-01-04T16:36:09.472Z,97690.66
2023-01-04T16:38:41.937Z,97687.88
2023-01-04T16:41:14.039Z,97688.62
2023-01-04T16:43:49.230Z,97692.54
2023-01-04T16:46:25.083Z,97693.91
2023-01-04T16:48:57.455Z,97693.39
2023-01-04T16:51:29.147Z,97690.48
2023-01-04T16:53:59.193Z,97690.31
2023-01-04T16:56:32.598Z,97690.51
2023-01-04T16:59:02.896Z,97691.04
2023-01-04T17:01:34.204Z,97695.31
2023-01-04T17:04:08.835Z,97691.39
2023-01-04T17:06:43.276Z,97683.84
2023-01-04T17:09:15.446Z,97679.69
2023-01-04T17:14:56.229Z,97664.61
2023-01-04T17:17:42.448Z,97665.31
2023-01-04T17:20:13.762Z,97652.47
2023-01-04T17:22:43.852Z,97648.36
2023-01-04T17:25:14.792Z,97643.34
2023-01-04T17:27:45.009Z,97636.19
2023-01-04T17:30:15.854Z,97633.34
2023-01-04T17:32:45.906Z,97626.44
2023-01-04T17:35:16.124Z,97622.59
2023-01-04T17:37:46.039Z,97611.61
2023-01-04T17:40:20.788Z,97605.27
2023-01-04T17:42:53.156Z,97605.59
2023-01-04T17:45:23.085Z,97597.36
2023-01-04T17:47:53.533Z,97593.25
2023-01-04T17:50:23.473Z,97593.60
2023-01-04T17:52:53.544Z,97588.96
2023-01-04T17:55:23.363Z,97585.02
2023-01-04T17:57:53.173Z,97581.95
2023-01-04T18:00:23.515Z,97577.67
2023-01-04T18:02:53.525Z,97574.42
2023-01-04T18:05:23.466Z,97570.67
2023-01-04T18:07:53.303Z,97563.58
2023-01-04T18:10:40.825Z,97556.58
2023-01-04T18:13:13.649Z,97557.95
2023-01-04T18:16:10.219Z,97552.29
2023-01-04T18:18:36.801Z,97553.27
2023-01-04T18:21:28.081Z,97541.45
2023-01-04T18:27:20.464Z,97542.09
2023-01-04T18:29:41.342Z,97536.96
2023-01-04T18:32:11.560Z,97531.84
2023-01-04T18:34:42.412Z,97524.23
2023-01-04T18:37:13.247Z,97520.30
2023-01-04T18:39:43.927Z,97518.01
2023-01-04T18:42:15.642Z,97513.84
2023-01-04T18:44:49.369Z,97511.05
2023-01-04T18:47:21.321Z,97495.91
2023-01-04T18:49:53.211Z,97490.00
2023-01-04T18:52:23.084Z,97485.96
2023-01-04T18:54:53.220Z,97476.82
2023-01-04T18:57:23.213Z,97470.91
2023-01-04T18:59:53.213Z,97467.59
2023-01-04T19:02:23.458Z,97459.63
2023-01-04T19:04:53.618Z,97464.02
2023-01-04T19:07:23.384Z,97460.19
2023-01-04T19:09:53.946Z,97462.89
2023-01-04T19:12:23.833Z,97463.95
2023-01-04T19:14:59.205Z,97461.27
2023-01-04T19:17:30.988Z,97457.27
2023-01-04T19:20:01.566Z,97456.02
2023-01-04T19:22:36.232Z,97452.73
2023-01-04T19:25:12.277Z,97451.38
2023-01-04T19:27:44.395Z,97432.97
2023-01-04T19:30:16.712Z,97427.92
2023-01-04T19:32:46.624Z,97426.50
2023-01-04T19:35:17.020Z,97432.33
2023-01-04T19:37:47.134Z,97433.15
2023-01-04T19:40:20.259Z,97434.29
2023-01-04T19:42:50.813Z,97429.61
2023-01-04T19:45:21.434Z,97429.41
2023-01-04T19:47:53.623Z,97421.12
2023-01-04T19:50:25.841Z,97418.34
2023-01-04T19:52:59.014Z,97415.89
2023-01-04T19:55:29.884Z,97415.36
2023-01-04T19:58:00.344Z,97410.55
2023-01-04T20:00:30.288Z,97415.32
2023-01-04T20:03:01.967Z,97413.07
2023-01-04T20:05:34.098Z,97400.86
2023-01-04T20:08:06.556Z,97392.23
2023-01-04T20:10:36.572Z,97385.73
2023-01-04T20:13:06.483Z,97377.96
2023-01-04T20:15:39.263Z,97374.23
2023-01-04T20:18:13.847Z,97376.42
2023-01-04T20:20:45.004Z,97362.73
2023-01-04T20:23:21.243Z,97357.55
2023-01-04T20:25:54.213Z,97352.09
2023-01-04T20:28:25.150Z,97341.11
2023-01-04T20:31:04.067Z,97339.07
2023-01-04T20:33:34.411Z,97339.77
2023-01-04T20:36:08.702Z,97342.02
2023-01-04T20:38:40.741Z,97338.55
2023-01-04T20:41:17.318Z,97344.87
2023-01-04T20:43:49.228Z,97354.66
2023-01-04T20:46:21.703Z,97347.05
2023-01-04T20:48:52.234Z,97340.92
2023-01-04T20:51:25.063Z,97341.96
2023-01-04T20:53:58.394Z,97333.06
2023-01-04T20:56:30.206Z,97330.61
2023-01-04T20:59:00.265Z,97330.88
2023-01-04T21:01:32.533Z,97332.54
2023-01-04T21:04:02.674Z,97321.53
2023-01-04T21:06:34.618Z,97318.08
2023-01-04T21:09:05.528Z,97314.30
2023-01-04T21:11:35.606Z,97306.01
2023-01-04T21:14:06.169Z,97295.73
2023-01-04T21:16:36.045Z,97287.05
2023-01-04T21:19:06.191Z,97281.70
2023-01-04T21:21:36.136Z,97290.29
2023-01-04T21:24:06.977Z,97287.98
2023-01-04T21:26:36.868Z,97282.35
2023-01-04T21:29:07.398Z,97278.34
2023-01-04T21:31:37.760Z,97275.94
2023-01-04T21:34:13.513Z,97269.40
2023-01-04T21:36:45.205Z,97274.37
2023-01-04T21:39:15.626Z,97273.77
2023-01-04T21:41:48.181Z,97266.05
2023-01-04T21:44:18.525Z,97257.72
2023-01-04T21:46:48.565Z,97249.27
2023-01-04T21:49:18.586Z,97238.09
2023-01-04T21:51:48.485Z,97235.36
2023-01-04T21:54:18.461Z,97233.76
2023-01-04T21:56:48.457Z,97229.79
2023-01-04T21:59:18.553Z,97226.56
2023-01-04T22:01:48.716Z,97234.82
2023-01-04T22:04:19.759Z,97231.23
2023-01-04T22:06:49.827Z,97225.69
2023-01-04T22:09:20.163Z,97222.47
2023-01-04T22:11:50.469Z,97229.15
2023-01-04T22:14:21.007Z,97228.63
2023-01-04T22:16:50.877Z,97220.85
2023-01-04T22:19:22.210Z,97218.46
2023-01-04T22:21:52.296Z,97209.89
2023-01-04T22:24:25.173Z,97210.75
2023-01-04T22:26:55.217Z,97215.69
2023-01-04T22:29:25.634Z,97209.97
2023-01-04T22:31:55.586Z,97206.33
2023-01-04T22:34:27.802Z,97198.05
2023-01-04T22:36:57.766Z,97197.33
2023-01-04T22:39:27.851Z,97207.44
2023-01-04T22:41:57.709Z,97201.86
2023-01-04T22:44:27.940Z,97196.52
2023-01-04T22:46:57.972Z,97189.61
2023-01-04T22:49:29.152Z,97189.14
2023-01-04T22:51:59.835Z,97187.88
2023-01-04T22:54:32.696Z,97180.09
2023-01-04T22:57:02.555Z,97183.30
2023-01-04T22:59:32.545Z,97173.23
2023-01-04T23:02:02.532Z,97169.29
2023-01-04T23:04:32.730Z,97157.61
2023-01-04T23:07:02.542Z,97156.02
2023-01-04T23:09:32.588Z,97151.77
2023-01-04T23:12:02.594Z,97153.66
2023-01-04T23:14:32.343Z,97155.40
2023-01-04T23:17:02.719Z,97149.19
2023-01-04T23:19:34.074Z,97138.54
2023-01-04T23:22:04.225Z,97132.48
2023-01-04T23:24:34.713Z,97129.27
2023-01-04T23:27:09.905Z,97126.00
2023-01-04T23:29:39.753Z,97130.46
2023-01-04T23:32:09.978Z,97129.40
2023-01-04T23:34:39.999Z,97127.77
2023-01-04T23:37:09.842Z,97120.08
2023-01-04T23:39:40.164Z,97121.27
2023-01-04T23:42:10.202Z,97122.40
2023-01-04T23:44:40.006Z,97116.92
2023-01-04T23:47:10.613Z,97107.85
2023-01-04T23:49:40.523Z,97104.42
2023-01-04T23:52:11.157Z,97105.98
2023-01-04T23:54:41.041Z,97102.65
2023-01-04T23:57:11.452Z,97100.23
2023-01-04T23:59:41.502Z,97092.20
